sensor_id;sensor_type;location;lat;lon;timestamp;temperature;humidity
15815;DHT22;8008;50.024;8.172;2023-05-07T03:01:29;15.90;99.90
15815;DHT22;8008;50.024;8.172;2023-05-07T03:04:03;15.90;99.90
15815;DHT22;8008;50.024;8.172;2023-05-07T03:06:32;15.80;99.90
15815;DHT22;8008;50.024;8.172;2023-05-07T03:09:00;15.80;99.90
15815;DHT22;8008;50.024;8.172;2023-05-07T03:11:28;15.80;99.90
15815;DHT22;8008;50.024;8.172;2023-05-07T03:13:56;15.70;99.90
15815;DHT22;8008;50.024;8.172;2023-05-07T03:16:25;15.70;99.90
15815;DHT22;8008;50.024;8.172;2023-05-07T03:18:54;15.70;99.90
15815;DHT22;8008;50.024;8.172;2023-05-07T03:21:22;15.60;99.90
15815;DHT22;8008;50.024;8.172;2023-05-07T03:23:50;15.40;99.90
15815;DHT22;8008;50.024;8.172;2023-05-07T03:26:18;15.30;99.90
15815;DHT22;8008;50.024;8.172;2023-05-07T03:28:47;15.30;99.90
15815;DHT22;8008;50.024;8.172;2023-05-07T03:31:16;15.10;99.90
15815;DHT22;8008;50.024;8.172;2023-05-07T03:33:56;15.00;99.90
15815;DHT22;8008;50.024;8.172;2023-05-07T03:36:25;15.00;99.90
15815;DHT22;8008;50.024;8.172;2023-05-07T03:38:55;15.10;99.90
15815;DHT22;8008;50.024;8.172;2023-05-07T03:41:27;15.10;99.90
15815;DHT22;8008;50.024;8.172;2023-05-07T03:43:56;15.10;99.90
15815;DHT22;8008;50.024;8.172;2023-05-07T03:46:24;15.10;99.90
15815;DHT22;8008;50.024;8.172;2023-05-07T03:48:54;15.10;99.90
15815;DHT22;8008;50.024;8.172;2023-05-07T03:51:23;15.10;99.90
15815;DHT22;8008;50.024;8.172;2023-05-07T03:53:52;15.10;99.90
15815;DHT22;8008;50.024;8.172;2023-05-07T03:56:21;15.20;99.90
15815;DHT22;8008;50.024;8.172;2023-05-07T03:58:53;15.20;99.90
15815;DHT22;8008;50.024;8.172;2023-05-07T04:01:21;15.10;99.90
15815;DHT22;8008;50.024;8.172;2023-05-07T04:03:50;15.20;99.90
15815;DHT22;8008;50.024;8.172;2023-05-07T04:06:20;15.00;99.90
15815;DHT22;8008;50.024;8.172;2023-05-07T04:08:49;15.00;99.90
15815;DHT22;8008;50.024;8.172;2023-05-07T04:11:17;15.00;99.90
15815;DHT22;8008;50.024;8.172;2023-05-07T04:13:45;15.10;99.90
15815;DHT22;8008;50.024;8.172;2023-05-07T04:16:16;15.20;99.90
15815;DHT22;8008;50.024;8.172;2023-05-07T04:18:44;15.20;99.90
15815;DHT22;8008;50.024;8.172;2023-05-07T04:21:15;15.10;99.90
15815;DHT22;8008;50.024;8.172;2023-05-07T04:23:45;15.10;99.90
15815;DHT22;8008;50.024;8.172;2023-05-07T04:26:14;15.00;99.90
15815;DHT22;8008;50.024;8.172;2023-05-07T04:28:43;15.00;99.90
15815;DHT22;8008;50.024;8.172;2023-05-07T04:31:12;15.10;99.90
15815;DHT22;8008;50.024;8.172;2023-05-07T04:33:40;15.30;99.90
15815;DHT22;8008;50.024;8.172;2023-05-07T04:36:11;15.40;99.90
15815;DHT22;8008;50.024;8.172;2023-05-07T04:38:48;15.40;99.90
15815;DHT22;8008;50.024;8.172;2023-05-07T04:41:18;15.50;99.90
15815;DHT22;8008;50.024;8.172;2023-05-07T04:43:46;15.50;99.90
15815;DHT22;8008;50.024;8.172;2023-05-07T04:46:15;15.40;99.90
15815;DHT22;8008;50.024;8.172;2023-05-07T04:48:44;15.40;99.90
15815;DHT22;8008;50.024;8.172;2023-05-07T04:51:12;15.40;99.90
15815;DHT22;8008;50.024;8.172;2023-05-07T04:53:40;15.50;99.90
15815;DHT22;8008;50.024;8.172;2023-05-07T04:56:11;15.60;99.90
15815;DHT22;8008;50.024;8.172;2023-05-07T04:58:42;15.70;99.90
15815;DHT22;8008;50.024;8.172;2023-05-07T05:01:10;15.80;99.90
15815;DHT22;8008;50.024;8.172;2023-05-07T05:03:39;15.90;99.90
15815;DHT22;8008;50.024;8.172;2023-05-07T05:06:07;16.00;99.90
15815;DHT22;8008;50.024;8.172;2023-05-07T05:08:36;16.00;99.90
15815;DHT22;8008;50.024;8.172;2023-05-07T05:11:04;16.10;99.90
15815;DHT22;8008;50.024;8.172;2023-05-07T05:13:35;16.10;99.90
15815;DHT22;8008;50.024;8.172;2023-05-07T05:16:15;16.20;99.90
15815;DHT22;8008;50.024;8.172;2023-05-07T05:18:43;16.20;99.90
15815;DHT22;8008;50.024;8.172;2023-05-07T05:21:15;16.30;99.90
15815;DHT22;8008;50.024;8.172;2023-05-07T05:23:45;16.30;99.90
15815;DHT22;8008;50.024;8.172;2023-05-07T05:26:17;16.30;99.90
15815;DHT22;8008;50.024;8.172;2023-05-07T05:28:46;16.30;99.90
15815;DHT22;8008;50.024;8.172;2023-05-07T05:31:16;16.40;99.90
15815;DHT22;8008;50.024;8.172;2023-05-07T05:33:45;16.40;99.90
15815;DHT22;8008;50.024;8.172;2023-05-07T05:36:13;16.50;99.90
15815;DHT22;8008;50.024;8.172;2023-05-07T05:38:43;16.60;99.90
15815;DHT22;8008;50.024;8.172;2023-05-07T05:41:12;16.60;99.90
15815;DHT22;8008;50.024;8.172;2023-05-07T05:43:40;16.60;99.90
15815;DHT22;8008;50.024;8.172;2023-05-07T05:46:11;16.70;99.90
15815;DHT22;8008;50.024;8.172;2023-05-07T05:48:39;16.80;99.90
15815;DHT22;8008;50.024;8.172;2023-05-07T05:51:09;16.80;99.90
15815;DHT22;8008;50.024;8.172;2023-05-07T05:53:37;16.80;99.90
15815;DHT22;8008;50.024;8.172;2023-05-07T05:56:06;16.90;99.90
15815;DHT22;8008;50.024;8.172;2023-05-07T05:58:34;16.90;99.90
15815;DHT22;8008;50.024;8.172;2023-05-07T06:01:05;17.00;99.90
15815;DHT22;8008;50.024;8.172;2023-05-07T06:03:37;17.00;99.90
15815;DHT22;8008;50.024;8.172;2023-05-07T06:06:11;17.10;99.90
15815;DHT22;8008;50.024;8.172;2023-05-07T06:08:42;17.20;99.90
15815;DHT22;8008;50.024;8.172;2023-05-07T06:11:13;17.30;99.90
15815;DHT22;8008;50.024;8.172;2023-05-07T06:13:43;17.40;99.90
15815;DHT22;8008;50.024;8.172;2023-05-07T06:16:11;17.60;99.90
15815;DHT22;8008;50.024;8.172;2023-05-07T06:18:41;17.70;99.90
15815;DHT22;8008;50.024;8.172;2023-05-07T06:21:10;17.80;99.90
15815;DHT22;8008;50.024;8.172;2023-05-07T06:23:38;18.00;99.90
15815;DHT22;8008;50.024;8.172;2023-05-07T06:26:07;18.10;99.90
15815;DHT22;8008;50.024;8.172;2023-05-07T06:28:40;18.10;99.90
15815;DHT22;8008;50.024;8.172;2023-05-07T06:31:12;18.20;99.90
15815;DHT22;8008;50.024;8.172;2023-05-07T06:33:44;18.30;99.90
15815;DHT22;8008;50.024;8.172;2023-05-07T06:36:13;18.30;99.90
15815;DHT22;8008;50.024;8.172;2023-05-07T06:38:41;18.30;99.90
15815;DHT22;8008;50.024;8.172;2023-05-07T06:41:09;18.30;99.90
15815;DHT22;8008;50.024;8.172;2023-05-07T06:43:38;18.30;99.90
15815;DHT22;8008;50.024;8.172;2023-05-07T06:46:24;18.30;99.90
15815;DHT22;8008;50.024;8.172;2023-05-07T06:48:54;18.30;99.90
15815;DHT22;8008;50.024;8.172;2023-05-07T06:51:23;18.30;99.90
15815;DHT22;8008;50.024;8.172;2023-05-07T06:53:51;18.40;99.90
15815;DHT22;8008;50.024;8.172;2023-05-07T06:56:19;18.50;99.90
15815;DHT22;8008;50.024;8.172;2023-05-07T06:58:47;18.50;99.90
15815;DHT22;8008;50.024;8.172;2023-05-07T07:01:16;18.50;99.90
15815;DHT22;8008;50.024;8.172;2023-05-07T07:03:44;18.50;99.90
15815;DHT22;8008;50.024;8.172;2023-05-07T07:06:14;18.60;99.90
15815;DHT22;8008;50.024;8.172;2023-05-07T07:08:42;18.60;99.90
15815;DHT22;8008;50.024;8.172;2023-05-07T07:11:13;18.60;99.90
15815;DHT22;8008;50.024;8.172;2023-05-07T07:13:41;18.60;99.90
15815;DHT22;8008;50.024;8.172;2023-05-07T07:16:10;18.60;99.90
15815;DHT22;8008;50.024;8.172;2023-05-07T07:18:38;18.60;99.90
15815;DHT22;8008;50.024;8.172;2023-05-07T07:21:06;18.50;99.90
15815;DHT22;8008;50.024;8.172;2023-05-07T07:23:36;18.50;99.90
15815;DHT22;8008;50.024;8.172;2023-05-07T07:26:04;18.50;99.90
15815;DHT22;8008;50.024;8.172;2023-05-07T07:28:33;18.50;99.90
15815;DHT22;8008;50.024;8.172;2023-05-07T07:31:01;18.60;99.90
15815;DHT22;8008;50.024;8.172;2023-05-07T07:33:30;18.60;99.90
15815;DHT22;8008;50.024;8.172;2023-05-07T07:35:58;18.60;99.90
15815;DHT22;8008;50.024;8.172;2023-05-07T07:38:26;18.60;99.90
15815;DHT22;8008;50.024;8.172;2023-05-07T07:40:56;18.60;99.90
15815;DHT22;8008;50.024;8.172;2023-05-07T07:43:24;18.70;99.90
15815;DHT22;8008;50.024;8.172;2023-05-07T07:45:52;18.70;99.90
15815;DHT22;8008;50.024;8.172;2023-05-07T07:48:21;18.70;99.90
15815;DHT22;8008;50.024;8.172;2023-05-07T07:50:49;18.70;99.90
15815;DHT22;8008;50.024;8.172;2023-05-07T07:53:18;18.70;99.90
15815;DHT22;8008;50.024;8.172;2023-05-07T07:55:46;18.80;99.90
15815;DHT22;8008;50.024;8.172;2023-05-07T07:58:19;18.90;99.90
15815;DHT22;8008;50.024;8.172;2023-05-07T08:00:48;19.00;99.90
15815;DHT22;8008;50.024;8.172;2023-05-07T08:03:16;19.20;99.90
15815;DHT22;8008;50.024;8.172;2023-05-07T08:05:50;19.20;99.90
15815;DHT22;8008;50.024;8.172;2023-05-07T08:08:18;19.30;99.90
15815;DHT22;8008;50.024;8.172;2023-05-07T08:10:47;19.30;99.90
15815;DHT22;8008;50.024;8.172;2023-05-07T08:13:25;19.30;99.90
15815;DHT22;8008;50.024;8.172;2023-05-07T08:15:54;19.40;99.90
15815;DHT22;8008;50.024;8.172;2023-05-07T08:18:24;19.50;99.90
15815;DHT22;8008;50.024;8.172;2023-05-07T08:20:53;19.50;99.90
15815;DHT22;8008;50.024;8.172;2023-05-07T08:23:24;19.40;99.90
15815;DHT22;8008;50.024;8.172;2023-05-07T08:25:53;19.40;99.80
15815;DHT22;8008;50.024;8.172;2023-05-07T08:28:22;19.40;99.70
15815;DHT22;8008;50.024;8.172;2023-05-07T08:30:52;19.40;99.70
15815;DHT22;8008;50.024;8.172;2023-05-07T08:33:21;19.50;99.60
15815;DHT22;8008;50.024;8.172;2023-05-07T08:35:48;19.50;99.30
15815;DHT22;8008;50.024;8.172;2023-05-07T08:38:16;19.60;99.40
15815;DHT22;8008;50.024;8.172;2023-05-07T08:40:44;19.60;99.20
15815;DHT22;8008;50.024;8.172;2023-05-07T08:43:19;19.60;98.90
15815;DHT22;8008;50.024;8.172;2023-05-07T08:45:49;19.60;98.60
15815;DHT22;8008;50.024;8.172;2023-05-07T08:48:23;19.60;98.90
15815;DHT22;8008;50.024;8.172;2023-05-07T08:50:59;19.70;98.80
15815;DHT22;8008;50.024;8.172;2023-05-07T08:53:27;19.70;98.80
15815;DHT22;8008;50.024;8.172;2023-05-07T08:55:55;19.80;98.60
15815;DHT22;8008;50.024;8.172;2023-05-07T08:58:24;19.90;98.70
15815;DHT22;8008;50.024;8.172;2023-05-07T09:00:53;20.00;98.60
15815;DHT22;8008;50.024;8.172;2023-05-07T09:03:23;20.00;98.50
15815;DHT22;8008;50.024;8.172;2023-05-07T09:05:54;20.10;98.30
15815;DHT22;8008;50.024;8.172;2023-05-07T09:08:24;20.20;98.20
15815;DHT22;8008;50.024;8.172;2023-05-07T09:10:55;20.30;97.80
15815;DHT22;8008;50.024;8.172;2023-05-07T09:13:23;20.30;97.70
15815;DHT22;8008;50.024;8.172;2023-05-07T09:15:52;20.40;98.00
15815;DHT22;8008;50.024;8.172;2023-05-07T09:18:20;20.50;97.60
15815;DHT22;8008;50.024;8.172;2023-05-07T09:20:50;20.60;97.70
15815;DHT22;8008;50.024;8.172;2023-05-07T09:23:20;20.70;97.70
15815;DHT22;8008;50.024;8.172;2023-05-07T09:25:48;20.60;96.60
15815;DHT22;8008;50.024;8.172;2023-05-07T09:28:26;20.60;96.60
15815;DHT22;8008;50.024;8.172;2023-05-07T09:30:55;20.70;97.00
15815;DHT22;8008;50.024;8.172;2023-05-07T09:33:26;20.80;96.60
15815;DHT22;8008;50.024;8.172;2023-05-07T09:35:57;20.90;96.90
15815;DHT22;8008;50.024;8.172;2023-05-07T09:38:25;21.00;97.00
15815;DHT22;8008;50.024;8.172;2023-05-07T09:41:04;21.20;97.00
15815;DHT22;8008;50.024;8.172;2023-05-07T09:43:37;21.40;96.60
15815;DHT22;8008;50.024;8.172;2023-05-07T09:46:10;21.50;96.20
15815;DHT22;8008;50.024;8.172;2023-05-07T09:48:43;21.50;96.30
15815;DHT22;8008;50.024;8.172;2023-05-07T09:51:22;21.50;95.10
15815;DHT22;8008;50.024;8.172;2023-05-07T09:53:56;21.60;95.50
15815;DHT22;8008;50.024;8.172;2023-05-07T09:56:27;21.60;95.00
15815;DHT22;8008;50.024;8.172;2023-05-07T09:58:59;21.60;95.50
15815;DHT22;8008;50.024;8.172;2023-05-07T10:01:31;21.70;95.50
15815;DHT22;8008;50.024;8.172;2023-05-07T10:04:02;21.80;96.10
15815;DHT22;8008;50.024;8.172;2023-05-07T10:06:32;22.00;95.70
15815;DHT22;8008;50.024;8.172;2023-05-07T10:09:00;22.10;95.00
15815;DHT22;8008;50.024;8.172;2023-05-07T10:11:30;22.40;94.50
15815;DHT22;8008;50.024;8.172;2023-05-07T10:14:00;22.60;94.80
15815;DHT22;8008;50.024;8.172;2023-05-07T10:16:32;22.90;94.80
15815;DHT22;8008;50.024;8.172;2023-05-07T10:19:06;23.20;93.70
15815;DHT22;8008;50.024;8.172;2023-05-07T10:21:39;23.20;92.90
15815;DHT22;8008;50.024;8.172;2023-05-07T10:24:10;23.30;92.80
15815;DHT22;8008;50.024;8.172;2023-05-07T10:26:43;23.40;92.60
15815;DHT22;8008;50.024;8.172;2023-05-07T10:29:15;23.40;91.10
15815;DHT22;8008;50.024;8.172;2023-05-07T10:31:57;23.20;91.50
15815;DHT22;8008;50.024;8.172;2023-05-07T10:34:29;23.10;91.90
15815;DHT22;8008;50.024;8.172;2023-05-07T10:37:02;22.90;91.70
15815;DHT22;8008;50.024;8.172;2023-05-07T10:39:31;22.80;91.80
15815;DHT22;8008;50.024;8.172;2023-05-07T10:42:07;22.80;92.10
15815;DHT22;8008;50.024;8.172;2023-05-07T10:44:37;22.90;92.00
15815;DHT22;8008;50.024;8.172;2023-05-07T10:47:11;23.20;92.10
15815;DHT22;8008;50.024;8.172;2023-05-07T10:50:20;23.50;91.80
15815;DHT22;8008;50.024;8.172;2023-05-07T10:53:21;23.60;91.60
15815;DHT22;8008;50.024;8.172;2023-05-07T10:56:25;23.40;91.00
15815;DHT22;8008;50.024;8.172;2023-05-07T10:59:34;23.30;90.40
15815;DHT22;8008;50.024;8.172;2023-05-07T11:02:16;23.30;90.80
15815;DHT22;8008;50.024;8.172;2023-05-07T11:05:24;23.30;90.50
15815;DHT22;8008;50.024;8.172;2023-05-07T11:08:05;23.30;90.50
15815;DHT22;8008;50.024;8.172;2023-05-07T11:10:50;23.40;90.10
15815;DHT22;8008;50.024;8.172;2023-05-07T11:13:43;23.50;90.20
15815;DHT22;8008;50.024;8.172;2023-05-07T11:16:34;23.60;90.20
15815;DHT22;8008;50.024;8.172;2023-05-07T11:19:12;23.70;90.10
15815;DHT22;8008;50.024;8.172;2023-05-07T11:21:44;23.80;89.90
15815;DHT22;8008;50.024;8.172;2023-05-07T11:24:19;23.80;88.90
15815;DHT22;8008;50.024;8.172;2023-05-07T11:26:55;24.00;89.10
15815;DHT22;8008;50.024;8.172;2023-05-07T11:29:25;24.20;90.00
15815;DHT22;8008;50.024;8.172;2023-05-07T11:31:58;24.30;88.30
15815;DHT22;8008;50.024;8.172;2023-05-07T11:34:33;24.30;88.60
15815;DHT22;8008;50.024;8.172;2023-05-07T11:37:01;24.50;86.80
15815;DHT22;8008;50.024;8.172;2023-05-07T11:39:46;24.60;86.90
15815;DHT22;8008;50.024;8.172;2023-05-07T11:42:29;24.60;85.90
15815;DHT22;8008;50.024;8.172;2023-05-07T11:44:57;24.70;86.60
15815;DHT22;8008;50.024;8.172;2023-05-07T11:47:26;24.70;85.00
15815;DHT22;8008;50.024;8.172;2023-05-07T11:49:54;25.00;85.10
15815;DHT22;8008;50.024;8.172;2023-05-07T11:52:23;25.10;84.80
15815;DHT22;8008;50.024;8.172;2023-05-07T11:54:52;25.40;85.30
15815;DHT22;8008;50.024;8.172;2023-05-07T11:57:21;25.50;84.00
15815;DHT22;8008;50.024;8.172;2023-05-07T11:59:54;25.70;83.40
15815;DHT22;8008;50.024;8.172;2023-05-07T12:02:22;26.00;81.60
15815;DHT22;8008;50.024;8.172;2023-05-07T12:04:52;26.30;82.30
15815;DHT22;8008;50.024;8.172;2023-05-07T12:07:20;26.70;79.50
15815;DHT22;8008;50.024;8.172;2023-05-07T12:09:48;26.80;79.20
15815;DHT22;8008;50.024;8.172;2023-05-07T12:12:17;27.00;78.80
15815;DHT22;8008;50.024;8.172;2023-05-07T12:14:45;27.00;77.10
15815;DHT22;8008;50.024;8.172;2023-05-07T12:17:15;27.50;77.00
15815;DHT22;8008;50.024;8.172;2023-05-07T12:19:44;27.90;74.70
15815;DHT22;8008;50.024;8.172;2023-05-07T12:22:13;27.90;75.20
15815;DHT22;8008;50.024;8.172;2023-05-07T12:24:45;28.40;74.70
15815;DHT22;8008;50.024;8.172;2023-05-07T12:27:13;28.60;73.00
15815;DHT22;8008;50.024;8.172;2023-05-07T12:29:44;28.90;71.70
15815;DHT22;8008;50.024;8.172;2023-05-07T12:32:14;29.20;71.20
15815;DHT22;8008;50.024;8.172;2023-05-07T12:34:42;29.60;70.60
15815;DHT22;8008;50.024;8.172;2023-05-07T12:37:11;30.00;69.40
15815;DHT22;8008;50.024;8.172;2023-05-07T12:39:44;29.80;68.20
15815;DHT22;8008;50.024;8.172;2023-05-07T12:42:15;29.70;67.60
15815;DHT22;8008;50.024;8.172;2023-05-07T12:44:46;29.30;67.50
15815;DHT22;8008;50.024;8.172;2023-05-07T12:47:15;28.80;67.50
15815;DHT22;8008;50.024;8.172;2023-05-07T12:49:43;28.70;68.00
15815;DHT22;8008;50.024;8.172;2023-05-07T12:52:12;28.90;67.20
15815;DHT22;8008;50.024;8.172;2023-05-07T12:54:41;29.30;67.20
15815;DHT22;8008;50.024;8.172;2023-05-07T12:57:10;29.40;65.40
15815;DHT22;8008;50.024;8.172;2023-05-07T12:59:39;29.60;65.60
15815;DHT22;8008;50.024;8.172;2023-05-07T13:02:08;29.20;65.90
15815;DHT22;8008;50.024;8.172;2023-05-07T13:04:40;28.60;66.00
15815;DHT22;8008;50.024;8.172;2023-05-07T13:07:08;28.50;67.20
15815;DHT22;8008;50.024;8.172;2023-05-07T13:09:36;28.40;67.00
15815;DHT22;8008;50.024;8.172;2023-05-07T13:12:04;28.80;67.40
15815;DHT22;8008;50.024;8.172;2023-05-07T13:14:33;29.60;66.20
15815;DHT22;8008;50.024;8.172;2023-05-07T13:17:01;30.50;63.90
15815;DHT22;8008;50.024;8.172;2023-05-07T13:19:29;31.20;61.70
15815;DHT22;8008;50.024;8.172;2023-05-07T13:21:58;31.60;61.10
15815;DHT22;8008;50.024;8.172;2023-05-07T13:24:26;32.10;60.50
15815;DHT22;8008;50.024;8.172;2023-05-07T13:26:54;32.40;61.20
15815;DHT22;8008;50.024;8.172;2023-05-07T13:29:22;32.80;59.70
15815;DHT22;8008;50.024;8.172;2023-05-07T13:31:55;33.20;59.10
15815;DHT22;8008;50.024;8.172;2023-05-07T13:34:23;33.70;58.70
15815;DHT22;8008;50.024;8.172;2023-05-07T13:36:52;34.30;56.60
15815;DHT22;8008;50.024;8.172;2023-05-07T13:39:21;34.70;55.90
15815;DHT22;8008;50.024;8.172;2023-05-07T13:41:49;35.10;56.10
15815;DHT22;8008;50.024;8.172;2023-05-07T13:44:17;35.20;54.40
15815;DHT22;8008;50.024;8.172;2023-05-07T13:46:45;35.30;54.40
15815;DHT22;8008;50.024;8.172;2023-05-07T13:49:13;35.10;53.70
15815;DHT22;8008;50.024;8.172;2023-05-07T13:51:41;35.30;53.30
15815;DHT22;8008;50.024;8.172;2023-05-07T13:54:08;35.70;52.80
15815;DHT22;8008;50.024;8.172;2023-05-07T13:56:38;35.70;53.10
15815;DHT22;8008;50.024;8.172;2023-05-07T13:59:06;35.90;52.70
15815;DHT22;8008;50.024;8.172;2023-05-07T14:01:35;35.60;52.40
15815;DHT22;8008;50.024;8.172;2023-05-07T14:04:03;35.10;52.20
15815;DHT22;8008;50.024;8.172;2023-05-07T14:06:31;35.10;51.60
15815;DHT22;8008;50.024;8.172;2023-05-07T14:08:59;34.90;51.50
15815;DHT22;8008;50.024;8.172;2023-05-07T14:11:27;33.90;51.10
15815;DHT22;8008;50.024;8.172;2023-05-07T14:13:56;32.80;52.00
15815;DHT22;8008;50.024;8.172;2023-05-07T14:16:25;31.90;52.80
15815;DHT22;8008;50.024;8.172;2023-05-07T14:18:53;30.90;53.60
15815;DHT22;8008;50.024;8.172;2023-05-07T14:21:24;30.30;53.90
15815;DHT22;8008;50.024;8.172;2023-05-07T14:23:52;29.80;54.50
15815;DHT22;8008;50.024;8.172;2023-05-07T14:26:20;29.40;54.50
15815;DHT22;8008;50.024;8.172;2023-05-07T14:28:49;29.50;55.10
15815;DHT22;8008;50.024;8.172;2023-05-07T14:31:18;30.20;54.80
15815;DHT22;8008;50.024;8.172;2023-05-07T14:33:47;31.00;54.80
15815;DHT22;8008;50.024;8.172;2023-05-07T14:36:16;31.70;53.80
15815;DHT22;8008;50.024;8.172;2023-05-07T14:38:44;32.10;53.40
15815;DHT22;8008;50.024;8.172;2023-05-07T14:41:12;31.80;53.50
15815;DHT22;8008;50.024;8.172;2023-05-07T14:43:42;30.90;53.80
15815;DHT22;8008;50.024;8.172;2023-05-07T14:46:10;30.00;54.80
15815;DHT22;8008;50.024;8.172;2023-05-07T14:48:39;29.40;55.80
15815;DHT22;8008;50.024;8.172;2023-05-07T14:51:07;28.80;56.60
15815;DHT22;8008;50.024;8.172;2023-05-07T14:53:35;28.40;57.10
15815;DHT22;8008;50.024;8.172;2023-05-07T14:56:03;28.00;57.10
15815;DHT22;8008;50.024;8.172;2023-05-07T14:58:31;27.60;57.60
15815;DHT22;8008;50.024;8.172;2023-05-07T15:01:01;27.30;58.30
15815;DHT22;8008;50.024;8.172;2023-05-07T15:03:29;27.00;58.70
15815;DHT22;8008;50.024;8.172;2023-05-07T15:05:58;26.80;59.40
15815;DHT22;8008;50.024;8.172;2023-05-07T15:08:27;26.60;59.80
15815;DHT22;8008;50.024;8.172;2023-05-07T15:10:55;26.40;59.90
15815;DHT22;8008;50.024;8.172;2023-05-07T15:13:25;26.30;60.60
15815;DHT22;8008;50.024;8.172;2023-05-07T15:15:53;26.20;60.80
15815;DHT22;8008;50.024;8.172;2023-05-07T15:18:21;26.10;61.30
15815;DHT22;8008;50.024;8.172;2023-05-07T15:20:49;25.90;60.40
15815;DHT22;8008;50.024;8.172;2023-05-07T15:23:19;25.80;60.50
15815;DHT22;8008;50.024;8.172;2023-05-07T15:25:49;25.70;61.50
15815;DHT22;8008;50.024;8.172;2023-05-07T15:28:18;25.60;61.80
15815;DHT22;8008;50.024;8.172;2023-05-07T15:30:46;25.60;61.90
15815;DHT22;8008;50.024;8.172;2023-05-07T15:33:14;25.50;62.20
15815;DHT22;8008;50.024;8.172;2023-05-07T15:35:42;25.30;62.60
15815;DHT22;8008;50.024;8.172;2023-05-07T15:38:10;25.30;62.60
15815;DHT22;8008;50.024;8.172;2023-05-07T15:40:41;25.20;62.80
15815;DHT22;8008;50.024;8.172;2023-05-07T15:43:09;25.10;63.30
15815;DHT22;8008;50.024;8.172;2023-05-07T15:45:38;24.90;63.60
15815;DHT22;8008;50.024;8.172;2023-05-07T15:48:06;24.90;63.80
15815;DHT22;8008;50.024;8.172;2023-05-07T15:50:34;24.80;64.80
15815;DHT22;8008;50.024;8.172;2023-05-07T15:53:03;24.80;67.50
15815;DHT22;8008;50.024;8.172;2023-05-07T15:55:32;24.70;69.00
15815;DHT22;8008;50.024;8.172;2023-05-07T15:58:01;24.70;68.10
15815;DHT22;8008;50.024;8.172;2023-05-07T16:00:32;24.50;67.90
15815;DHT22;8008;50.024;8.172;2023-05-07T16:03:02;24.40;67.10
15815;DHT22;8008;50.024;8.172;2023-05-07T16:05:30;24.30;67.50
15815;DHT22;8008;50.024;8.172;2023-05-07T16:07:58;24.30;67.70
15815;DHT22;8008;50.024;8.172;2023-05-07T16:10:26;24.30;67.20
15815;DHT22;8008;50.024;8.172;2023-05-07T16:12:54;24.20;68.40
15815;DHT22;8008;50.024;8.172;2023-05-07T16:15:23;24.00;69.20
15815;DHT22;8008;50.024;8.172;2023-05-07T16:17:51;23.90;68.90
15815;DHT22;8008;50.024;8.172;2023-05-07T16:20:26;23.80;69.50
15815;DHT22;8008;50.024;8.172;2023-05-07T16:22:56;23.60;70.70
15815;DHT22;8008;50.024;8.172;2023-05-07T16:25:24;23.40;71.60
15815;DHT22;8008;50.024;8.172;2023-05-07T16:27:52;23.30;70.90
15815;DHT22;8008;50.024;8.172;2023-05-07T16:30:20;23.10;70.90
15815;DHT22;8008;50.024;8.172;2023-05-07T16:32:49;23.00;71.20
15815;DHT22;8008;50.024;8.172;2023-05-07T16:35:18;23.00;72.20
15815;DHT22;8008;50.024;8.172;2023-05-07T16:37:45;22.70;76.20
15815;DHT22;8008;50.024;8.172;2023-05-07T16:40:13;22.20;79.90
15815;DHT22;8008;50.024;8.172;2023-05-07T16:42:42;21.90;82.30
15815;DHT22;8008;50.024;8.172;2023-05-07T16:45:10;21.20;85.00
15815;DHT22;8008;50.024;8.172;2023-05-07T16:47:38;20.90;87.60
15815;DHT22;8008;50.024;8.172;2023-05-07T16:50:08;20.70;89.90
15815;DHT22;8008;50.024;8.172;2023-05-07T16:52:36;20.50;91.20
15815;DHT22;8008;50.024;8.172;2023-05-07T16:55:05;20.30;95.00
15815;DHT22;8008;50.024;8.172;2023-05-07T16:57:33;20.20;98.90
15815;DHT22;8008;50.024;8.172;2023-05-07T17:00:01;20.20;99.90
15815;DHT22;8008;50.024;8.172;2023-05-07T17:02:32;19.90;99.90
15815;DHT22;8008;50.024;8.172;2023-05-07T17:05:02;19.50;99.90
15815;DHT22;8008;50.024;8.172;2023-05-07T17:07:33;19.00;99.90
15815;DHT22;8008;50.024;8.172;2023-05-07T17:10:01;18.30;99.90
15815;DHT22;8008;50.024;8.172;2023-05-07T17:12:29;17.70;99.90
15815;DHT22;8008;50.024;8.172;2023-05-07T17:14:57;17.30;99.90
15815;DHT22;8008;50.024;8.172;2023-05-07T17:17:25;17.10;99.90
15815;DHT22;8008;50.024;8.172;2023-05-07T17:19:54;16.90;99.90
15815;DHT22;8008;50.024;8.172;2023-05-07T17:22:21;16.90;99.90
15815;DHT22;8008;50.024;8.172;2023-05-07T17:24:52;16.90;99.90
15815;DHT22;8008;50.024;8.172;2023-05-07T17:27:20;16.90;99.90
15815;DHT22;8008;50.024;8.172;2023-05-07T17:29:48;16.90;99.90
15815;DHT22;8008;50.024;8.172;2023-05-07T17:32:16;17.10;99.90
15815;DHT22;8008;50.024;8.172;2023-05-07T17:34:44;17.10;99.90
15815;DHT22;8008;50.024;8.172;2023-05-07T17:37:12;17.20;99.90
15815;DHT22;8008;50.024;8.172;2023-05-07T17:39:40;17.10;99.90
15815;DHT22;8008;50.024;8.172;2023-05-07T17:42:09;17.10;99.90
15815;DHT22;8008;50.024;8.172;2023-05-07T17:44:37;17.00;99.90
15815;DHT22;8008;50.024;8.172;2023-05-07T17:47:05;17.00;99.90
15815;DHT22;8008;50.024;8.172;2023-05-07T17:49:34;17.00;99.90
15815;DHT22;8008;50.024;8.172;2023-05-07T17:52:03;17.10;99.90
15815;DHT22;8008;50.024;8.172;2023-05-07T17:54:31;17.20;99.90
15815;DHT22;8008;50.024;8.172;2023-05-07T17:56:59;17.30;99.90
15815;DHT22;8008;50.024;8.172;2023-05-07T17:59:28;17.40;99.90
15815;DHT22;8008;50.024;8.172;2023-05-07T18:01:56;17.20;99.90
15815;DHT22;8008;50.024;8.172;2023-05-07T18:04:24;17.10;99.90
15815;DHT22;8008;50.024;8.172;2023-05-07T18:06:53;17.00;99.90
15815;DHT22;8008;50.024;8.172;2023-05-07T18:09:22;17.10;99.90
15815;DHT22;8008;50.024;8.172;2023-05-07T18:11:50;17.00;99.90
15815;DHT22;8008;50.024;8.172;2023-05-07T18:14:18;17.00;99.90
15815;DHT22;8008;50.024;8.172;2023-05-07T18:16:51;17.20;99.90
15815;DHT22;8008;50.024;8.172;2023-05-07T18:19:20;17.20;99.90
15815;DHT22;8008;50.024;8.172;2023-05-07T18:21:48;17.10;99.90
15815;DHT22;8008;50.024;8.172;2023-05-07T18:24:16;17.20;99.90
15815;DHT22;8008;50.024;8.172;2023-05-07T18:26:45;17.20;99.90
15815;DHT22;8008;50.024;8.172;2023-05-07T18:29:14;17.10;99.90
15815;DHT22;8008;50.024;8.172;2023-05-07T18:31:42;17.00;99.90
15815;DHT22;8008;50.024;8.172;2023-05-07T18:34:12;17.10;99.90
15815;DHT22;8008;50.024;8.172;2023-05-07T18:36:40;17.20;99.90
15815;DHT22;8008;50.024;8.172;2023-05-07T18:39:08;17.10;99.90
15815;DHT22;8008;50.024;8.172;2023-05-07T18:41:36;17.00;99.90
15815;DHT22;8008;50.024;8.172;2023-05-07T18:44:05;17.00;99.90
15815;DHT22;8008;50.024;8.172;2023-05-07T18:46:33;17.10;99.90
15815;DHT22;8008;50.024;8.172;2023-05-07T18:49:02;17.20;99.90
15815;DHT22;8008;50.024;8.172;2023-05-07T18:51:31;17.10;99.90
15815;DHT22;8008;50.024;8.172;2023-05-07T18:53:59;17.00;99.90
15815;DHT22;8008;50.024;8.172;2023-05-07T18:56:27;16.70;99.90
15815;DHT22;8008;50.024;8.172;2023-05-07T18:58:55;16.50;99.90
15815;DHT22;8008;50.024;8.172;2023-05-07T19:01:23;16.50;99.90
15815;DHT22;8008;50.024;8.172;2023-05-07T19:03:51;16.60;99.90